Welcome to Des Moines Iowa Weather. I am an independent private personal weather station on the Northwest Side of Des Moines, Iowa. Just East of Windsor Heights and just West of Glendale . This site is also mobile friendly.

There are no active watches, warnings or advisories


Visit our other weather sites:

Historical Data

Weather Station Setup



Weather Underground History page Text

Daily Summary for January 20, 2018 Units:  Both    English   Metric
« Previous Day
Next Day »
Daily Weekly Monthly Yearly Custom
  High: Low: Average:
Temperature: 48.4 °F /  9.1 °C 26.9 °F /  -2.8 °C 36.7 °F /  2.6 °C
Dew Point: 39.0 °F /  3.9 °C 25.0 °F /  -3.9 °C 31.9 °F /  -0.1 °C
Humidity: 93 % 62 % 83 %
Wind Speed: 5.0 mph /  8 km/h - 0.4 mph /  0.6 km/h
Wind Gust: 7.0 mph /  11.3 km/h - -
Wind:- - SSE
Pressure: 29.91 in /  1012.8 hPa 29.78 in /  1008.4 hPa -
Precipitation: 0.00 in /  0 mm    
Historical Graphs
 
 
Tabular Data for January 20, 2018
Time Temperature Dew Point Pressure Wind Wind Speed Wind Gust Humidity Rainfall Rate (Hourly)
00:00 36.5 °F /  2.5 °C 29.0 °F /  -1.7 °C 29.78 in /  1008.4 hPa Calm     75 % 0.00 in /  0 mm
00:15 36.0 °F /  2.2 °C 29.0 °F /  -1.7 °C 29.78 in /  1008.4 hPa South 4.0 mph /  6.4 km/h 4.0 mph /  6.4 km/h 76 % 0.00 in /  0 mm
00:30 35.7 °F /  2.1 °C 29.0 °F /  -1.7 °C 29.79 in /  1008.7 hPa Calm     77 % 0.00 in /  0 mm
00:45 35.3 °F /  1.8 °C 29.0 °F /  -1.7 °C 29.79 in /  1008.7 hPa Calm     77 % 0.00 in /  0 mm
01:00 35.0 °F /  1.7 °C 29.0 °F /  -1.7 °C 29.79 in /  1008.7 hPa Calm   1.0 mph /  1.6 km/h 78 % 0.00 in /  0 mm
01:15 34.6 °F /  1.4 °C 28.0 °F /  -2.2 °C 29.79 in /  1008.7 hPa Calm     78 % 0.00 in /  0 mm
01:30 34.1 °F /  1.2 °C 28.0 °F /  -2.2 °C 29.79 in /  1008.7 hPa Calm     78 % 0.00 in /  0 mm
01:45 33.6 °F /  0.9 °C 28.0 °F /  -2.2 °C 29.79 in /  1008.7 hPa Calm     79 % 0.00 in /  0 mm
02:00 33.1 °F /  0.6 °C 28.0 °F /  -2.2 °C 29.80 in /  1009 hPa Calm     81 % 0.00 in /  0 mm
02:16 32.7 °F /  0.4 °C 28.0 °F /  -2.2 °C 29.80 in /  1009 hPa Calm     81 % 0.00 in /  0 mm
02:31 32.2 °F /  0.1 °C 27.0 °F /  -2.8 °C 29.81 in /  1009.4 hPa Calm     81 % 0.00 in /  0 mm
02:49 31.7 °F /  -0.2 °C 27.0 °F /  -2.8 °C 29.80 in /  1009 hPa Calm     82 % 0.00 in /  0 mm
03:01 31.3 °F /  -0.4 °C 27.0 °F /  -2.8 °C 29.81 in /  1009.4 hPa Calm     83 % 0.00 in /  0 mm
03:16 30.9 °F /  -0.6 °C 27.0 °F /  -2.8 °C 29.81 in /  1009.4 hPa Calm     84 % 0.00 in /  0 mm
03:31 30.6 °F /  -0.8 °C 26.0 °F /  -3.3 °C 29.82 in /  1009.7 hPa Calm     84 % 0.00 in /  0 mm
03:46 30.2 °F /  -1 °C 26.0 °F /  -3.3 °C 29.82 in /  1009.7 hPa Calm     85 % 0.00 in /  0 mm
04:01 29.9 °F /  -1.2 °C 26.0 °F /  -3.3 °C 29.82 in /  1009.7 hPa Calm     85 % 0.00 in /  0 mm
04:16 29.4 °F /  -1.4 °C 26.0 °F /  -3.3 °C 29.82 in /  1009.7 hPa Calm     86 % 0.00 in /  0 mm
04:31 29.2 °F /  -1.6 °C 26.0 °F /  -3.3 °C 29.82 in /  1009.7 hPa Calm     86 % 0.00 in /  0 mm
04:46 29.0 °F /  -1.7 °C 26.0 °F /  -3.3 °C 29.82 in /  1009.7 hPa Calm     87 % 0.00 in /  0 mm
05:01 28.9 °F /  -1.7 °C 26.0 °F /  -3.3 °C 29.83 in /  1010 hPa Calm     87 % 0.00 in /  0 mm
05:16 28.7 °F /  -1.8 °C 25.0 °F /  -3.9 °C 29.83 in /  1010 hPa Calm     87 % 0.00 in /  0 mm
05:31 28.4 °F /  -2 °C 25.0 °F /  -3.9 °C 29.84 in /  1010.4 hPa Calm     88 % 0.00 in /  0 mm
05:46 28.2 °F /  -2.1 °C 25.0 °F /  -3.9 °C 29.84 in /  1010.4 hPa Calm     88 % 0.00 in /  0 mm
06:01 27.9 °F /  -2.3 °C 25.0 °F /  -3.9 °C 29.84 in /  1010.4 hPa Calm     88 % 0.00 in /  0 mm
06:16 27.8 °F /  -2.3 °C 25.0 °F /  -3.9 °C 29.85 in /  1010.7 hPa Calm     89 % 0.00 in /  0 mm
06:31 27.6 °F /  -2.4 °C 25.0 °F /  -3.9 °C 29.84 in /  1010.4 hPa Calm     89 % 0.00 in /  0 mm
06:46 27.5 °F /  -2.5 °C 25.0 °F /  -3.9 °C 29.85 in /  1010.7 hPa Calm   2.0 mph /  3.2 km/h 89 % 0.00 in /  0 mm
07:01 27.5 °F /  -2.5 °C 25.0 °F /  -3.9 °C 29.85 in /  1010.7 hPa Calm     90 % 0.00 in /  0 mm
07:16 27.3 °F /  -2.6 °C 25.0 °F /  -3.9 °C 29.85 in /  1010.7 hPa Calm     90 % 0.00 in /  0 mm
07:31 27.3 °F /  -2.6 °C 25.0 °F /  -3.9 °C 29.86 in /  1011.1 hPa Calm     90 % 0.00 in /  0 mm
07:46 27.4 °F /  -2.6 °C 25.0 °F /  -3.9 °C 29.86 in /  1011.1 hPa Calm   2.0 mph /  3.2 km/h 90 % 0.00 in /  0 mm
08:01 27.3 °F /  -2.6 °C 25.0 °F /  -3.9 °C 29.87 in /  1011.4 hPa Calm     90 % 0.00 in /  0 mm
08:16 27.0 °F /  -2.8 °C 25.0 °F /  -3.9 °C 29.87 in /  1011.4 hPa Calm     90 % 0.00 in /  0 mm
08:31 26.9 °F /  -2.8 °C 25.0 °F /  -3.9 °C 29.87 in /  1011.4 hPa Calm     91 % 0.00 in /  0 mm
08:46 27.6 °F /  -2.4 °C 26.0 °F /  -3.3 °C 29.88 in /  1011.7 hPa Calm     92 % 0.00 in /  0 mm
09:01 28.8 °F /  -1.8 °C 27.0 °F /  -2.8 °C 29.88 in /  1011.7 hPa Calm     92 % 0.00 in /  0 mm
09:16 30.4 °F /  -0.9 °C 28.0 °F /  -2.2 °C 29.89 in /  1012.1 hPa Calm     92 % 0.00 in /  0 mm
09:31 31.8 °F /  -0.1 °C 30.0 °F /  -1.1 °C 29.90 in /  1012.4 hPa Calm   2.0 mph /  3.2 km/h 92 % 0.00 in /  0 mm
09:46 32.8 °F /  0.4 °C 31.0 °F /  -0.6 °C 29.91 in /  1012.8 hPa Calm     92 % 0.00 in /  0 mm
10:01 34.1 °F /  1.2 °C 32.0 °F /  0 °C 29.91 in /  1012.8 hPa Calm   1.0 mph /  1.6 km/h 90 % 0.00 in /  0 mm
10:17 36.1 °F /  2.3 °C 33.0 °F /  0.6 °C 29.91 in /  1012.8 hPa Calm   3.0 mph /  4.8 km/h 87 % 0.00 in /  0 mm
10:32 38.3 °F /  3.5 °C 32.0 °F /  0 °C 29.91 in /  1012.8 hPa Calm   3.0 mph /  4.8 km/h 77 % 0.00 in /  0 mm
10:47 39.3 °F /  4.1 °C 32.0 °F /  0 °C 29.90 in /  1012.4 hPa South 1.0 mph /  1.6 km/h 5.0 mph /  8 km/h 75 % 0.00 in /  0 mm
11:02 40.1 °F /  4.5 °C 32.0 °F /  0 °C 29.90 in /  1012.4 hPa South 4.0 mph /  6.4 km/h 4.0 mph /  6.4 km/h 73 % 0.00 in /  0 mm
11:17 41.2 °F /  5.1 °C 32.0 °F /  0 °C 29.90 in /  1012.4 hPa South 1.0 mph /  1.6 km/h 3.0 mph /  4.8 km/h 70 % 0.00 in /  0 mm
11:32 42.0 °F /  5.6 °C 32.0 °F /  0 °C 29.90 in /  1012.4 hPa Calm   4.0 mph /  6.4 km/h 69 % 0.00 in /  0 mm
11:47 42.7 °F /  5.9 °C 33.0 °F /  0.6 °C 29.89 in /  1012.1 hPa South 4.0 mph /  6.4 km/h 5.0 mph /  8 km/h 68 % 0.00 in /  0 mm
12:02 43.7 °F /  6.5 °C 33.0 °F /  0.6 °C 29.89 in /  1012.1 hPa Calm   5.0 mph /  8 km/h 65 % 0.00 in /  0 mm
12:17 44.6 °F /  7 °C 33.0 °F /  0.6 °C 29.88 in /  1011.7 hPa North 1.0 mph /  1.6 km/h 3.0 mph /  4.8 km/h 63 % 0.00 in /  0 mm
12:32 45.6 °F /  7.6 °C 33.0 °F /  0.6 °C 29.88 in /  1011.7 hPa Calm   3.0 mph /  4.8 km/h 62 % 0.00 in /  0 mm
12:47 46.6 °F /  8.1 °C 34.0 °F /  1.1 °C 29.87 in /  1011.4 hPa Calm   2.0 mph /  3.2 km/h 62 % 0.00 in /  0 mm
13:02 46.7 °F /  8.2 °C 35.0 °F /  1.7 °C 29.87 in /  1011.4 hPa NNE 1.0 mph /  1.6 km/h 3.0 mph /  4.8 km/h 63 % 0.00 in /  0 mm
13:17 47.4 °F /  8.6 °C 36.0 °F /  2.2 °C 29.86 in /  1011.1 hPa Calm   3.0 mph /  4.8 km/h 64 % 0.00 in /  0 mm
13:32 47.4 °F /  8.6 °C 35.0 °F /  1.7 °C 29.86 in /  1011.1 hPa Calm   5.0 mph /  8 km/h 63 % 0.00 in /  0 mm
13:53 48.4 °F /  9.1 °C 36.0 °F /  2.2 °C 29.85 in /  1010.7 hPa SSE 1.0 mph /  1.6 km/h 5.0 mph /  8 km/h 63 % 0.00 in /  0 mm
14:03 48.2 °F /  9 °C 36.0 °F /  2.2 °C 29.85 in /  1010.7 hPa Calm   2.0 mph /  3.2 km/h 64 % 0.00 in /  0 mm
14:18 47.9 °F /  8.8 °C 37.0 °F /  2.8 °C 29.86 in /  1011.1 hPa SSE 4.0 mph /  6.4 km/h 5.0 mph /  8 km/h 67 % 0.00 in /  0 mm
14:33 47.2 °F /  8.4 °C 39.0 °F /  3.9 °C 29.86 in /  1011.1 hPa South 4.0 mph /  6.4 km/h 5.0 mph /  8 km/h 72 % 0.00 in /  0 mm
14:48 46.7 °F /  8.2 °C 39.0 °F /  3.9 °C 29.86 in /  1011.1 hPa South 2.0 mph /  3.2 km/h 5.0 mph /  8 km/h 74 % 0.00 in /  0 mm
15:03 45.7 °F /  7.6 °C 39.0 °F /  3.9 °C 29.86 in /  1011.1 hPa SSW 3.0 mph /  4.8 km/h 6.0 mph /  9.7 km/h 77 % 0.00 in /  0 mm
15:18 44.7 °F /  7.1 °C 39.0 °F /  3.9 °C 29.87 in /  1011.4 hPa SSW 5.0 mph /  8 km/h 5.0 mph /  8 km/h 79 % 0.00 in /  0 mm
15:33 44.0 °F /  6.7 °C 38.0 °F /  3.3 °C 29.88 in /  1011.7 hPa SSW 2.0 mph /  3.2 km/h 5.0 mph /  8 km/h 80 % 0.00 in /  0 mm
15:48 43.3 °F /  6.3 °C 38.0 °F /  3.3 °C 29.88 in /  1011.7 hPa Calm   7.0 mph /  11.3 km/h 82 % 0.00 in /  0 mm
16:03 43.2 °F /  6.2 °C 38.0 °F /  3.3 °C 29.89 in /  1012.1 hPa South 2.0 mph /  3.2 km/h 4.0 mph /  6.4 km/h 82 % 0.00 in /  0 mm
16:18 43.2 °F /  6.2 °C 38.0 °F /  3.3 °C 29.88 in /  1011.7 hPa Calm   2.0 mph /  3.2 km/h 82 % 0.00 in /  0 mm
16:33 43.1 °F /  6.2 °C 38.0 °F /  3.3 °C 29.88 in /  1011.7 hPa Calm     81 % 0.00 in /  0 mm
16:48 42.7 °F /  5.9 °C 38.0 °F /  3.3 °C 29.88 in /  1011.7 hPa Calm     82 % 0.00 in /  0 mm
17:03 42.2 °F /  5.7 °C 37.0 °F /  2.8 °C 29.88 in /  1011.7 hPa Calm     81 % 0.00 in /  0 mm
17:18 41.5 °F /  5.3 °C 36.0 °F /  2.2 °C 29.89 in /  1012.1 hPa Calm     82 % 0.00 in /  0 mm
17:33 40.9 °F /  4.9 °C 36.0 °F /  2.2 °C 29.89 in /  1012.1 hPa Calm     83 % 0.00 in /  0 mm
17:48 40.2 °F /  4.6 °C 35.0 °F /  1.7 °C 29.90 in /  1012.4 hPa Calm     83 % 0.00 in /  0 mm
18:03 39.4 °F /  4.1 °C 35.0 °F /  1.7 °C 29.90 in /  1012.4 hPa Calm     83 % 0.00 in /  0 mm
18:18 38.6 °F /  3.7 °C 34.0 °F /  1.1 °C 29.90 in /  1012.4 hPa Calm     84 % 0.00 in /  0 mm
18:33 38.0 °F /  3.3 °C 34.0 °F /  1.1 °C 29.91 in /  1012.8 hPa Calm     86 % 0.00 in /  0 mm
18:48 37.4 °F /  3 °C 34.0 °F /  1.1 °C 29.91 in /  1012.8 hPa Calm     87 % 0.00 in /  0 mm
19:03 37.0 °F /  2.8 °C 34.0 °F /  1.1 °C 29.91 in /  1012.8 hPa Calm     88 % 0.00 in /  0 mm
19:18 37.0 °F /  2.8 °C 34.0 °F /  1.1 °C 29.91 in /  1012.8 hPa Calm     89 % 0.00 in /  0 mm
19:33 37.4 °F /  3 °C 35.0 °F /  1.7 °C 29.91 in /  1012.8 hPa Calm     90 % 0.00 in /  0 mm
19:48 37.6 °F /  3.1 °C 35.0 °F /  1.7 °C 29.91 in /  1012.8 hPa Calm     91 % 0.00 in /  0 mm
20:03 37.8 °F /  3.2 °C 36.0 °F /  2.2 °C 29.91 in /  1012.8 hPa Calm     91 % 0.00 in /  0 mm
20:18 38.1 °F /  3.4 °C 36.0 °F /  2.2 °C 29.91 in /  1012.8 hPa Calm     92 % 0.00 in /  0 mm
20:33 38.6 °F /  3.7 °C 37.0 °F /  2.8 °C 29.90 in /  1012.4 hPa Calm     92 % 0.00 in /  0 mm
20:48 38.6 °F /  3.7 °C 37.0 °F /  2.8 °C 29.90 in /  1012.4 hPa Calm     92 % 0.00 in /  0 mm
21:03 38.5 °F /  3.6 °C 36.0 °F /  2.2 °C 29.90 in /  1012.4 hPa Calm     92 % 0.00 in /  0 mm
21:18 38.6 °F /  3.7 °C 37.0 °F /  2.8 °C 29.90 in /  1012.4 hPa Calm     92 % 0.00 in /  0 mm
21:33 38.5 °F /  3.6 °C 36.0 °F /  2.2 °C 29.90 in /  1012.4 hPa Calm     92 % 0.00 in /  0 mm
21:48 38.4 °F /  3.6 °C 36.0 °F /  2.2 °C 29.91 in /  1012.8 hPa Calm     92 % 0.00 in /  0 mm
22:03 38.4 °F /  3.6 °C 36.0 °F /  2.2 °C 29.91 in /  1012.8 hPa Calm     92 % 0.00 in /  0 mm
22:18 38.5 °F /  3.6 °C 36.0 °F /  2.2 °C 29.91 in /  1012.8 hPa Calm     92 % 0.00 in /  0 mm
22:33 38.5 °F /  3.6 °C 36.0 °F /  2.2 °C 29.91 in /  1012.8 hPa Calm     92 % 0.00 in /  0 mm
22:48 38.7 °F /  3.7 °C 37.0 °F /  2.8 °C 29.90 in /  1012.4 hPa East 3.0 mph /  4.8 km/h 3.0 mph /  4.8 km/h 92 % 0.00 in /  0 mm
23:03 39.1 °F /  3.9 °C 37.0 °F /  2.8 °C 29.90 in /  1012.4 hPa Calm   3.0 mph /  4.8 km/h 93 % 0.00 in /  0 mm
23:18 39.2 °F /  4 °C 37.0 °F /  2.8 °C 29.90 in /  1012.4 hPa Calm     92 % 0.00 in /  0 mm
23:33 39.2 °F /  4 °C 37.0 °F /  2.8 °C 29.90 in /  1012.4 hPa Calm     92 % 0.00 in /  0 mm
23:48 39.1 °F /  3.9 °C 37.0 °F /  2.8 °C 29.91 in /  1012.8 hPa Calm     92 % 0.00 in /  0 mm
Des Moines Weather and Climate
Compliments of Weather Underground - 3 mb

Script developed by  Jim McMurry - jmcmurry@mwt.net Adapted for the template by  Wim van der Kuil - Leuven-Template.eu

You find our weather info also at:

Weather Underground

Equipment we use:

Weather-station
Davis VP2 Plus

Weather-program
Davis Weatherlink.Com

Weather-server
iMac (Retina 4K, 21.5-inch, Late 2015)

Provider
Hostmonster.com

Davis VP2 Plus

Davis Weatherlink.Com

iMac (Retina 4K, 21.5-inch, Late 2015)

Hostmonster.com